createdAt,value
2023-05-06T00:00:00.804Z,20.40
2023-05-06T00:01:00.808Z,20.20
2023-05-06T00:02:00.804Z,20.30
2023-05-06T00:03:00.879Z,22.30
2023-05-06T00:04:00.864Z,20.90
2023-05-06T00:05:00.774Z,19.00
2023-05-06T00:06:00.749Z,21.10
2023-05-06T00:07:00.748Z,18.70
2023-05-06T00:08:00.729Z,23.30
2023-05-06T00:09:00.723Z,22.60
2023-05-06T00:10:00.723Z,23.40
2023-05-06T00:11:00.856Z,24.40
2023-05-06T00:12:00.692Z,24.90
2023-05-06T00:13:00.716Z,27.10
2023-05-06T00:14:00.665Z,24.90
2023-05-06T00:15:00.655Z,26.00
2023-05-06T00:16:00.672Z,27.30
2023-05-06T00:17:00.632Z,28.70
2023-05-06T00:18:00.714Z,27.40
2023-05-06T00:19:00.742Z,27.30
2023-05-06T00:20:00.615Z,28.90
2023-05-06T00:21:00.641Z,29.90
2023-05-06T00:22:00.587Z,28.70
2023-05-06T00:23:00.597Z,27.50
2023-05-06T00:24:00.573Z,26.80
2023-05-06T00:25:00.584Z,27.30
2023-05-06T00:26:00.580Z,26.60
2023-05-06T00:27:00.535Z,29.20
2023-05-06T00:28:00.556Z,27.30
2023-05-06T00:29:00.519Z,26.40
2023-05-06T00:30:00.527Z,30.80
2023-05-06T00:31:00.506Z,28.30
2023-05-06T00:32:00.502Z,27.20
2023-05-06T00:33:00.497Z,28.20
2023-05-06T00:34:00.473Z,30.00
2023-05-06T00:35:00.725Z,24.90
2023-05-06T00:36:00.473Z,26.70
2023-05-06T00:37:00.444Z,27.40
2023-05-06T00:38:00.430Z,26.20
2023-05-06T00:39:00.430Z,25.70
2023-05-06T00:40:00.429Z,25.90
2023-05-06T00:41:00.396Z,24.90
2023-05-06T00:42:01.400Z,26.30
2023-05-06T00:43:00.385Z,28.00
2023-05-06T00:44:00.385Z,27.50
2023-05-06T00:45:00.364Z,26.30
2023-05-06T00:46:00.388Z,23.60
2023-05-06T00:47:00.339Z,25.60
2023-05-06T00:48:00.403Z,25.10
2023-05-06T00:49:00.337Z,27.00
2023-05-06T00:50:00.314Z,25.70
2023-05-06T00:51:00.371Z,25.40
2023-05-06T00:52:00.297Z,25.50
2023-05-06T00:53:00.297Z,27.70
2023-05-06T00:54:00.283Z,25.60
2023-05-06T00:55:00.270Z,27.60
2023-05-06T00:56:00.270Z,25.10
2023-05-06T00:57:00.265Z,24.20
2023-05-06T00:58:00.235Z,24.70
2023-05-06T00:59:00.232Z,24.60
2023-05-06T01:00:00.259Z,24.60
2023-05-06T01:01:00.258Z,21.90
2023-05-06T01:02:00.199Z,23.60
2023-05-06T01:03:00.357Z,22.70
2023-05-06T01:04:00.358Z,22.30
2023-05-06T01:05:00.226Z,20.90
2023-05-06T01:06:00.187Z,22.10
2023-05-06T01:07:00.215Z,22.10
2023-05-06T01:08:00.151Z,21.10
2023-05-06T01:09:00.114Z,22.30
2023-05-06T01:10:00.152Z,21.60
2023-05-06T01:11:00.147Z,21.40
2023-05-06T01:12:00.150Z,21.10
2023-05-06T01:13:00.092Z,20.30
2023-05-06T01:14:00.119Z,20.70
2023-05-06T01:15:00.056Z,18.90
2023-05-06T01:16:00.055Z,19.30
2023-05-06T01:17:00.171Z,20.20
2023-05-06T01:18:00.139Z,19.30
2023-05-06T01:19:00.041Z,19.00
2023-05-06T01:20:00.025Z,18.50
2023-05-06T01:21:00.054Z,17.70
2023-05-06T01:21:59.995Z,18.80
2023-05-06T01:23:00.040Z,18.30
2023-05-06T01:23:59.979Z,18.10
2023-05-06T01:24:59.960Z,17.70
2023-05-06T01:25:59.958Z,18.40
2023-05-06T01:26:59.935Z,18.40
2023-05-06T01:27:59.937Z,17.70
2023-05-06T01:28:59.917Z,18.00
2023-05-06T01:29:59.962Z,17.40
2023-05-06T01:31:00.051Z,16.60
2023-05-06T01:31:59.934Z,16.60
2023-05-06T01:32:59.891Z,16.50
2023-05-06T01:33:59.886Z,17.50
2023-05-06T01:34:59.874Z,16.10
2023-05-06T01:35:59.870Z,16.30
2023-05-06T01:36:59.856Z,14.30
2023-05-06T01:37:59.829Z,15.10
2023-05-06T01:38:59.819Z,14.20
2023-05-06T01:39:59.826Z,14.00
2023-05-06T01:40:59.800Z,14.10
2023-05-06T01:41:59.796Z,14.20
2023-05-06T01:42:59.785Z,13.90
2023-05-06T01:43:59.767Z,14.90
2023-05-06T01:44:59.794Z,14.00
2023-05-06T01:45:59.794Z,14.80
2023-05-06T01:46:59.760Z,14.20
2023-05-06T01:48:00.777Z,14.60
2023-05-06T01:48:59.727Z,14.60
2023-05-06T01:49:59.729Z,14.80
2023-05-06T01:50:59.696Z,15.40
2023-05-06T01:51:59.720Z,14.80
2023-05-06T01:52:59.686Z,15.50
2023-05-06T01:53:59.680Z,15.10
2023-05-06T01:54:59.676Z,15.10
2023-05-06T01:55:59.660Z,15.40
2023-05-06T01:56:59.641Z,15.40
2023-05-06T01:57:59.653Z,14.30
2023-05-06T01:58:59.902Z,16.30
2023-05-06T01:59:59.620Z,16.80
2023-05-06T02:00:59.593Z,16.00
2023-05-06T02:01:59.722Z,15.90
2023-05-06T02:02:59.652Z,15.60
2023-05-06T02:03:59.780Z,15.90
2023-05-06T02:04:59.554Z,16.30
2023-05-06T02:05:59.544Z,15.80
2023-05-06T02:06:59.537Z,16.30
2023-05-06T02:07:59.540Z,16.50
2023-05-06T02:08:59.516Z,16.40
2023-05-06T02:09:59.501Z,15.10
2023-05-06T02:10:59.492Z,13.30
2023-05-06T02:11:59.494Z,13.10
2023-05-06T02:12:59.581Z,11.20
2023-05-06T02:13:59.455Z,8.00
2023-05-06T02:14:59.481Z,7.20
2023-05-06T02:15:59.492Z,6.80
2023-05-06T02:16:59.449Z,7.30
2023-05-06T02:17:59.516Z,6.80
2023-05-06T02:18:59.419Z,5.90
2023-05-06T02:19:59.397Z,6.30
2023-05-06T02:20:59.393Z,6.40
2023-05-06T02:21:59.384Z,6.90
2023-05-06T02:22:59.367Z,6.80
2023-05-06T02:23:59.354Z,6.70
2023-05-06T02:24:59.348Z,6.50
2023-05-06T02:25:59.354Z,6.00
2023-05-06T02:26:59.395Z,6.00
2023-05-06T02:27:59.321Z,6.30
2023-05-06T02:29:00.302Z,6.10
2023-05-06T02:29:59.300Z,6.30
2023-05-06T02:30:59.301Z,5.90
2023-05-06T02:31:59.343Z,5.70
2023-05-06T02:32:59.289Z,5.50
2023-05-06T02:33:59.251Z,5.40
2023-05-06T02:34:59.243Z,5.40
2023-05-06T02:35:59.257Z,5.70
2023-05-06T02:36:59.219Z,6.10
2023-05-06T02:37:59.212Z,5.60
2023-05-06T02:38:59.210Z,5.90
2023-05-06T02:39:59.196Z,6.20
2023-05-06T02:40:59.337Z,5.60
2023-05-06T02:41:59.172Z,6.20
2023-05-06T02:42:59.320Z,5.80
2023-05-06T02:43:59.148Z,5.90
2023-05-06T02:44:59.166Z,5.90
2023-05-06T02:45:59.163Z,5.60
2023-05-06T02:46:59.121Z,5.80
2023-05-06T02:47:59.132Z,5.90
2023-05-06T02:48:59.103Z,5.70
2023-05-06T02:49:59.102Z,5.60
2023-05-06T02:50:59.086Z,6.20
2023-05-06T02:51:59.076Z,6.60
2023-05-06T02:52:59.061Z,5.60
2023-05-06T02:53:59.071Z,5.40
2023-05-06T02:54:59.047Z,5.40
2023-05-06T02:55:59.032Z,6.50
2023-05-06T02:56:59.022Z,5.90
2023-05-06T02:57:59.011Z,6.00
2023-05-06T02:58:59.009Z,5.30
2023-05-06T02:59:58.995Z,5.60
2023-05-06T03:00:59.016Z,5.90
2023-05-06T03:01:58.995Z,6.30
2023-05-06T03:02:59.045Z,6.20
2023-05-06T03:03:59.022Z,6.80
2023-05-06T03:04:58.942Z,7.20
2023-05-06T03:05:58.939Z,6.70
2023-05-06T03:06:58.916Z,6.70
2023-05-06T03:07:58.933Z,6.80
2023-05-06T03:08:58.912Z,9.10
2023-05-06T03:09:58.896Z,7.90
2023-05-06T03:10:58.886Z,8.60
2023-05-06T03:11:58.919Z,8.30
2023-05-06T03:12:58.887Z,8.90
2023-05-06T03:13:58.852Z,9.50
2023-05-06T03:14:58.897Z,10.40
2023-05-06T03:15:58.835Z,11.40
2023-05-06T03:16:58.862Z,15.40
2023-05-06T03:17:58.862Z,12.50
2023-05-06T03:18:58.795Z,11.10
2023-05-06T03:19:58.780Z,10.50
2023-05-06T03:20:58.830Z,14.10
2023-05-06T03:21:58.769Z,14.40
2023-05-06T03:22:58.761Z,13.20
2023-05-06T03:23:58.759Z,13.00
2023-05-06T03:24:58.727Z,12.80
2023-05-06T03:25:58.717Z,12.90
2023-05-06T03:26:58.764Z,12.00
2023-05-06T03:27:58.700Z,12.50
2023-05-06T03:28:58.691Z,12.40
2023-05-06T03:29:58.686Z,12.40
2023-05-06T03:30:58.797Z,11.80
2023-05-06T03:31:58.750Z,13.80
2023-05-06T03:32:58.691Z,14.30
2023-05-06T03:33:58.659Z,13.20
2023-05-06T03:34:58.638Z,14.20
2023-05-06T03:35:58.633Z,14.50
2023-05-06T03:36:58.626Z,14.30
2023-05-06T03:37:58.605Z,14.70
2023-05-06T03:38:58.584Z,14.60
2023-05-06T03:39:58.581Z,14.20
2023-05-06T03:40:58.591Z,14.00
2023-05-06T03:41:58.574Z,14.30
2023-05-06T03:42:58.564Z,14.70
2023-05-06T03:43:58.544Z,15.00
2023-05-06T03:44:58.537Z,13.30
2023-05-06T03:45:58.577Z,13.70
2023-05-06T03:46:58.581Z,15.40
2023-05-06T03:47:58.747Z,14.90
2023-05-06T03:48:59.518Z,15.90
2023-05-06T03:49:58.492Z,14.80
2023-05-06T03:50:58.487Z,15.40
2023-05-06T03:51:58.461Z,15.70
2023-05-06T03:52:58.451Z,15.10
2023-05-06T03:53:58.441Z,14.80
2023-05-06T03:54:58.452Z,15.90
2023-05-06T03:55:58.418Z,16.10
2023-05-06T03:57:30.329Z,14.80
2023-05-06T03:57:58.407Z,15.90
2023-05-06T03:58:58.387Z,15.80
2023-05-06T03:59:58.391Z,16.30
2023-05-06T04:00:58.368Z,17.90
2023-05-06T04:01:58.406Z,15.60
2023-05-06T04:02:58.510Z,16.00
2023-05-06T04:03:58.385Z,16.70
2023-05-06T04:04:58.337Z,16.00
2023-05-06T04:05:58.323Z,17.00
2023-05-06T04:06:58.309Z,15.90
2023-05-06T04:07:58.312Z,16.80
2023-05-06T04:08:58.298Z,16.80
2023-05-06T04:09:58.280Z,16.80
2023-05-06T04:10:58.269Z,17.50
2023-05-06T04:11:58.261Z,17.00
2023-05-06T04:12:58.330Z,15.90
2023-05-06T04:13:58.258Z,17.10
2023-05-06T04:14:58.229Z,16.10
2023-05-06T04:15:58.273Z,15.90
2023-05-06T04:16:58.225Z,16.10
2023-05-06T04:17:58.226Z,16.00
2023-05-06T04:18:58.355Z,16.80
2023-05-06T04:19:58.170Z,16.90
2023-05-06T04:20:58.170Z,16.90
2023-05-06T04:21:58.157Z,18.00
2023-05-06T04:22:58.167Z,17.40
2023-05-06T04:23:58.134Z,17.40
2023-05-06T04:24:59.141Z,18.00
2023-05-06T04:25:58.184Z,18.80
2023-05-06T04:26:58.132Z,19.40
2023-05-06T04:27:58.111Z,19.00
2023-05-06T04:28:58.094Z,18.60
2023-05-06T04:29:58.079Z,18.20
2023-05-06T04:30:58.075Z,18.50
2023-05-06T04:31:58.139Z,17.80
2023-05-06T04:32:58.083Z,17.00
2023-05-06T04:33:58.046Z,17.60
2023-05-06T04:34:58.043Z,18.30
2023-05-06T04:35:58.037Z,17.60
2023-05-06T04:36:58.036Z,18.40
2023-05-06T04:37:58.011Z,17.90
2023-05-06T04:38:58.007Z,17.90
2023-05-06T04:39:57.993Z,17.90
2023-05-06T04:40:57.993Z,17.40
2023-05-06T04:41:58.004Z,17.80
2023-05-06T04:42:57.966Z,17.20
2023-05-06T04:43:57.969Z,18.70
2023-05-06T04:44:57.942Z,18.50
2023-05-06T04:45:57.974Z,17.90
2023-05-06T04:46:57.946Z,18.90
2023-05-06T04:47:57.957Z,18.30
2023-05-06T04:48:57.905Z,17.10
2023-05-06T04:49:57.897Z,17.00
2023-05-06T04:50:57.965Z,17.80
2023-05-06T04:51:57.877Z,17.40
2023-05-06T04:52:57.864Z,18.60
2023-05-06T04:53:57.857Z,18.10
2023-05-06T04:54:57.863Z,18.10
2023-05-06T04:55:57.842Z,18.10
2023-05-06T04:56:57.837Z,18.00
2023-05-06T04:57:57.817Z,16.80
2023-05-06T04:58:57.803Z,16.40
2023-05-06T04:59:57.820Z,16.40
2023-05-06T05:00:57.844Z,16.10
2023-05-06T05:01:57.774Z,15.70
2023-05-06T05:02:57.883Z,15.30
2023-05-06T05:03:57.768Z,16.00
2023-05-06T05:04:57.760Z,15.60
2023-05-06T05:05:57.734Z,14.90
2023-05-06T05:06:57.813Z,15.20
2023-05-06T05:07:57.716Z,15.50
2023-05-06T05:08:59.366Z,15.00
2023-05-06T05:09:57.712Z,14.90
2023-05-06T05:10:57.693Z,14.90
2023-05-06T05:11:57.672Z,14.20
2023-05-06T05:12:57.686Z,14.60
2023-05-06T05:13:58.876Z,14.30
2023-05-06T05:14:57.662Z,15.60
2023-05-06T05:15:57.640Z,14.40
2023-05-06T05:16:57.650Z,14.00
2023-05-06T05:17:57.667Z,14.20
2023-05-06T05:18:57.615Z,14.70
2023-05-06T05:19:57.602Z,15.00
2023-05-06T05:20:57.595Z,14.60
2023-05-06T05:21:57.581Z,14.70
2023-05-06T05:22:57.574Z,15.10
2023-05-06T05:23:57.571Z,15.30
2023-05-06T05:24:57.542Z,14.60
2023-05-06T05:25:57.538Z,14.60
2023-05-06T05:26:57.527Z,15.50
2023-05-06T05:27:57.527Z,14.60
2023-05-06T05:28:57.506Z,13.60
2023-05-06T05:29:57.501Z,15.30
2023-05-06T05:30:57.519Z,14.80
2023-05-06T05:31:57.468Z,14.70
2023-05-06T05:32:57.555Z,15.20
2023-05-06T05:33:57.459Z,14.70
2023-05-06T05:34:57.450Z,15.00
2023-05-06T05:35:57.443Z,14.70
2023-05-06T05:36:57.431Z,15.10
2023-05-06T05:37:57.426Z,14.10
2023-05-06T05:38:57.402Z,15.50
2023-05-06T05:39:57.395Z,15.40
2023-05-06T05:40:57.383Z,15.20
2023-05-06T05:41:57.382Z,14.70
2023-05-06T05:42:57.354Z,14.90
2023-05-06T05:43:57.349Z,14.70
2023-05-06T05:44:57.334Z,14.70
2023-05-06T05:45:57.401Z,14.70
2023-05-06T05:46:57.335Z,14.20
2023-05-06T05:47:57.428Z,14.50
2023-05-06T05:48:57.299Z,14.00
2023-05-06T05:49:57.283Z,15.50
2023-05-06T05:50:57.278Z,15.20
2023-05-06T05:51:57.273Z,15.30
2023-05-06T05:52:57.251Z,15.50
2023-05-06T05:53:57.274Z,14.40
2023-05-06T05:54:57.234Z,14.20
2023-05-06T05:55:57.240Z,14.20
2023-05-06T05:56:57.212Z,14.30
2023-05-06T05:57:57.195Z,14.10
2023-05-06T05:58:57.187Z,14.30
2023-05-06T05:59:57.178Z,14.40
2023-05-06T06:00:57.174Z,14.20
2023-05-06T06:01:57.157Z,14.50
2023-05-06T06:02:57.202Z,14.60
2023-05-06T06:03:57.252Z,15.10
2023-05-06T06:04:57.200Z,14.10
2023-05-06T06:05:57.136Z,15.10
2023-05-06T06:06:57.115Z,15.00
2023-05-06T06:07:57.106Z,15.40
2023-05-06T06:08:57.107Z,14.80
2023-05-06T06:09:57.095Z,15.10
2023-05-06T06:10:57.154Z,15.40
2023-05-06T06:11:57.055Z,14.70
2023-05-06T06:12:57.072Z,14.10
2023-05-06T06:13:57.038Z,13.40
2023-05-06T06:14:57.045Z,14.30
2023-05-06T06:15:57.034Z,14.60
2023-05-06T06:16:57.033Z,14.40
2023-05-06T06:17:57.036Z,13.10
2023-05-06T06:18:56.998Z,14.50
2023-05-06T06:19:56.991Z,13.40
2023-05-06T06:20:56.970Z,13.30
2023-05-06T06:21:56.955Z,13.20
2023-05-06T06:22:56.946Z,14.10
2023-05-06T06:23:56.944Z,12.90
2023-05-06T06:24:56.924Z,13.80
2023-05-06T06:25:57.918Z,13.50
2023-05-06T06:26:56.971Z,13.70
2023-05-06T06:27:56.905Z,13.60
2023-05-06T06:28:56.896Z,13.00
2023-05-06T06:29:56.877Z,13.50
2023-05-06T06:30:56.868Z,12.10
2023-05-06T06:31:56.888Z,13.20
2023-05-06T06:32:56.901Z,12.30
2023-05-06T06:33:56.846Z,13.50
2023-05-06T06:34:56.830Z,12.60
2023-05-06T06:35:56.815Z,12.90
2023-05-06T06:36:56.800Z,13.30
2023-05-06T06:37:56.813Z,12.90
2023-05-06T06:38:56.780Z,13.30
2023-05-06T06:39:56.780Z,12.90
2023-05-06T06:40:56.769Z,12.80
2023-05-06T06:41:56.748Z,14.10
2023-05-06T06:42:56.880Z,14.10
2023-05-06T06:43:56.727Z,13.90
2023-05-06T06:44:56.730Z,14.10
2023-05-06T06:45:56.765Z,13.10
2023-05-06T06:46:56.708Z,14.00
2023-05-06T06:47:56.733Z,13.70
2023-05-06T06:48:56.676Z,13.40
2023-05-06T06:49:56.663Z,13.10
2023-05-06T06:50:56.677Z,13.20
2023-05-06T06:51:56.661Z,12.70
2023-05-06T06:52:56.646Z,12.30
2023-05-06T06:53:56.645Z,12.70
2023-05-06T06:54:56.622Z,13.70
2023-05-06T06:55:56.612Z,12.70
2023-05-06T06:56:56.622Z,13.10
2023-05-06T06:57:56.590Z,12.70
2023-05-06T06:58:56.589Z,12.70
2023-05-06T06:59:56.568Z,13.70
2023-05-06T07:00:56.582Z,12.40
2023-05-06T07:01:56.559Z,12.40
2023-05-06T07:02:56.580Z,12.60
2023-05-06T07:03:56.539Z,12.80
2023-05-06T07:04:56.517Z,12.20
2023-05-06T07:05:56.517Z,11.50
2023-05-06T07:06:56.512Z,12.60
2023-05-06T07:07:56.486Z,13.10
2023-05-06T07:08:56.500Z,12.40
2023-05-06T07:09:56.485Z,11.90
2023-05-06T07:10:56.478Z,12.70
2023-05-06T07:11:56.452Z,11.90
2023-05-06T07:12:56.481Z,12.40
2023-05-06T07:13:56.436Z,12.50
2023-05-06T07:14:56.497Z,11.90
2023-05-06T07:15:56.417Z,11.20
2023-05-06T07:16:56.423Z,10.40
2023-05-06T07:17:56.468Z,11.20
2023-05-06T07:18:56.383Z,10.90
2023-05-06T07:19:56.384Z,10.70
2023-05-06T07:20:56.364Z,9.80
2023-05-06T07:21:56.355Z,10.10
2023-05-06T07:22:56.342Z,10.10
2023-05-06T07:23:56.330Z,10.40
2023-05-06T07:24:56.337Z,10.10
2023-05-06T07:25:56.308Z,10.30
2023-05-06T07:26:56.302Z,10.00
2023-05-06T07:27:56.291Z,10.20
2023-05-06T07:28:56.293Z,9.90
2023-05-06T07:29:56.303Z,10.20
2023-05-06T07:30:56.346Z,10.30
2023-05-06T07:31:56.285Z,10.30
2023-05-06T07:32:56.277Z,10.50
2023-05-06T07:33:56.255Z,10.10
2023-05-06T07:34:56.230Z,9.40
2023-05-06T07:35:56.216Z,11.20
2023-05-06T07:36:56.201Z,10.60
2023-05-06T07:37:56.193Z,11.20
2023-05-06T07:38:56.191Z,11.20
2023-05-06T07:39:56.178Z,12.10
2023-05-06T07:40:56.160Z,11.00
2023-05-06T07:41:56.154Z,10.90
2023-05-06T07:42:56.159Z,11.10
2023-05-06T07:43:56.144Z,11.10
2023-05-06T07:44:56.119Z,11.30
2023-05-06T07:45:56.128Z,10.10
2023-05-06T07:46:56.168Z,11.80
2023-05-06T07:47:56.115Z,11.30
2023-05-06T07:48:56.091Z,10.50
2023-05-06T07:49:56.090Z,10.70
2023-05-06T07:50:56.072Z,11.30
2023-05-06T07:51:56.053Z,11.10
2023-05-06T07:52:56.068Z,11.20
2023-05-06T07:53:56.033Z,11.40
2023-05-06T07:54:56.026Z,11.60
2023-05-06T07:55:56.019Z,11.70
2023-05-06T07:56:56.009Z,11.50
2023-05-06T07:57:56.005Z,11.40
2023-05-06T07:58:55.999Z,11.60
2023-05-06T07:59:55.976Z,11.50
2023-05-06T08:00:55.966Z,11.20
2023-05-06T08:01:55.968Z,11.20
2023-05-06T08:02:56.031Z,10.70
2023-05-06T08:03:56.053Z,10.70
2023-05-06T08:04:55.974Z,10.60
2023-05-06T08:05:55.949Z,10.70
2023-05-06T08:06:55.923Z,10.70
2023-05-06T08:07:55.903Z,11.60
2023-05-06T08:08:55.892Z,11.00
2023-05-06T08:09:55.882Z,10.40
2023-05-06T08:10:55.879Z,10.90
2023-05-06T08:11:55.912Z,11.90
2023-05-06T08:12:55.925Z,10.90
2023-05-06T08:13:55.845Z,11.00
2023-05-06T08:14:55.851Z,11.70
2023-05-06T08:15:55.865Z,11.50
2023-05-06T08:16:55.805Z,11.30
2023-05-06T08:17:56.027Z,10.60
2023-05-06T08:18:55.850Z,10.90
2023-05-06T08:19:55.781Z,10.80
2023-05-06T08:20:55.785Z,11.50
2023-05-06T08:21:55.767Z,10.70
2023-05-06T08:22:55.750Z,10.60
2023-05-06T08:23:55.733Z,10.80
2023-05-06T08:24:55.747Z,10.80
2023-05-06T08:25:55.732Z,10.40
2023-05-06T08:26:55.709Z,9.90
2023-05-06T08:27:55.703Z,10.50
2023-05-06T08:28:55.693Z,10.10
2023-05-06T08:29:55.698Z,11.00
2023-05-06T08:30:55.672Z,10.50
2023-05-06T08:31:55.699Z,10.10
2023-05-06T08:32:55.674Z,10.80
2023-05-06T08:33:55.639Z,10.20
2023-05-06T08:34:55.648Z,10.00
2023-05-06T08:35:55.629Z,10.00
2023-05-06T08:36:55.607Z,10.00
2023-05-06T08:37:55.596Z,10.30
2023-05-06T08:38:56.599Z,9.90
2023-05-06T08:39:55.597Z,10.00
2023-05-06T08:40:55.576Z,10.50
2023-05-06T08:41:55.569Z,9.80
2023-05-06T08:42:55.556Z,10.30
2023-05-06T08:43:55.568Z,10.80
2023-05-06T08:44:55.533Z,9.80
2023-05-06T08:45:55.601Z,9.70
2023-05-06T08:46:55.515Z,9.90
2023-05-06T08:47:55.515Z,9.40
2023-05-06T08:48:55.503Z,9.30
2023-05-06T08:49:55.486Z,10.30
2023-05-06T08:50:55.477Z,8.80
2023-05-06T08:51:55.457Z,9.00
2023-05-06T08:52:55.466Z,8.80
2023-05-06T08:53:55.454Z,8.80
2023-05-06T08:54:55.437Z,9.60
2023-05-06T08:55:55.417Z,8.90
2023-05-06T08:56:55.411Z,9.60
2023-05-06T08:57:55.456Z,9.70
2023-05-06T08:58:55.411Z,9.90
2023-05-06T08:59:55.381Z,8.90
2023-05-06T09:00:55.391Z,9.50
2023-05-06T09:01:55.506Z,9.30
2023-05-06T09:02:55.412Z,9.70
2023-05-06T09:03:55.346Z,9.10
2023-05-06T09:04:55.341Z,9.30
2023-05-06T09:05:55.327Z,10.00
2023-05-06T09:06:55.433Z,9.90
2023-05-06T09:07:55.309Z,9.70
2023-05-06T09:08:55.300Z,10.10
2023-05-06T09:09:55.283Z,9.30
2023-05-06T09:10:55.275Z,9.30
2023-05-06T09:11:55.548Z,8.40
2023-05-06T09:12:55.280Z,9.20
2023-05-06T09:13:55.248Z,9.50
2023-05-06T09:14:55.234Z,9.60
2023-05-06T09:15:55.247Z,9.60
2023-05-06T09:16:55.311Z,9.70
2023-05-06T09:17:55.384Z,10.10
2023-05-06T09:18:55.200Z,9.80
2023-05-06T09:19:55.189Z,9.60
2023-05-06T09:20:55.189Z,10.00
2023-05-06T09:21:55.183Z,9.00
2023-05-06T09:22:55.346Z,9.40
2023-05-06T09:23:55.148Z,9.00
2023-05-06T09:24:55.141Z,8.90
2023-05-06T09:25:55.141Z,8.90
2023-05-06T09:26:55.123Z,8.30
2023-05-06T09:27:55.109Z,8.10
2023-05-06T09:28:55.101Z,8.30
2023-05-06T09:29:55.094Z,8.60
2023-05-06T09:30:55.108Z,8.00
2023-05-06T09:31:55.087Z,7.90
2023-05-06T09:32:55.081Z,7.70
2023-05-06T09:33:55.045Z,7.80
2023-05-06T09:34:55.048Z,7.10
2023-05-06T09:35:55.044Z,7.90
2023-05-06T09:36:55.024Z,7.70
2023-05-06T09:37:55.055Z,8.40
2023-05-06T09:38:55.192Z,7.50
2023-05-06T09:39:55.024Z,7.80
2023-05-06T09:40:54.985Z,8.60
2023-05-06T09:41:54.990Z,8.70
2023-05-06T09:42:54.967Z,8.90
2023-05-06T09:43:54.958Z,8.80
2023-05-06T09:44:54.960Z,7.60
2023-05-06T09:45:54.950Z,8.40
2023-05-06T09:46:54.924Z,8.20
2023-05-06T09:47:54.938Z,9.00
2023-05-06T09:48:54.921Z,7.70
2023-05-06T09:49:54.911Z,8.00
2023-05-06T09:50:54.888Z,8.10
2023-05-06T09:51:54.874Z,7.90
2023-05-06T09:52:54.884Z,8.20
2023-05-06T09:53:54.888Z,7.80
2023-05-06T09:54:54.981Z,7.50
2023-05-06T09:55:54.834Z,8.40
2023-05-06T09:56:54.830Z,7.90
2023-05-06T09:58:26.740Z,7.50
2023-05-06T09:58:54.827Z,7.80
2023-05-06T09:59:54.793Z,7.50
2023-05-06T10:00:54.788Z,7.80
2023-05-06T10:01:54.834Z,8.00
2023-05-06T10:02:54.969Z,7.60
2023-05-06T10:03:54.926Z,7.80
2023-05-06T10:04:54.813Z,6.90
2023-05-06T10:05:54.738Z,7.30
2023-05-06T10:06:54.737Z,7.60
2023-05-06T10:07:54.730Z,6.80
2023-05-06T10:08:54.717Z,7.10
2023-05-06T10:09:54.714Z,7.00
2023-05-06T10:10:54.753Z,6.00
2023-05-06T10:11:54.679Z,6.00
2023-05-06T10:12:54.779Z,5.90
2023-05-06T10:13:54.658Z,5.80
2023-05-06T10:14:54.654Z,6.80
2023-05-06T10:15:54.687Z,6.90
2023-05-06T10:16:54.644Z,6.60
2023-05-06T10:17:54.654Z,7.70
2023-05-06T10:18:54.617Z,7.40
2023-05-06T10:19:54.609Z,7.50
2023-05-06T10:20:54.595Z,8.00
2023-05-06T10:21:54.604Z,7.40
2023-05-06T10:22:54.584Z,7.20
2023-05-06T10:23:54.566Z,8.20
2023-05-06T10:24:54.558Z,7.40
2023-05-06T10:25:54.544Z,7.60
2023-05-06T10:26:54.544Z,7.80
2023-05-06T10:27:54.525Z,8.40
2023-05-06T10:28:54.520Z,8.20
2023-05-06T10:29:54.532Z,8.20
2023-05-06T10:30:54.509Z,8.10
2023-05-06T10:31:54.573Z,7.90
2023-05-06T10:32:54.517Z,7.90
2023-05-06T10:33:54.467Z,7.60
2023-05-06T10:34:54.465Z,7.00
2023-05-06T10:35:54.453Z,7.50
2023-05-06T10:36:54.434Z,7.30
2023-05-06T10:37:54.444Z,6.70
2023-05-06T10:38:54.408Z,7.60
2023-05-06T10:39:54.398Z,7.00
2023-05-06T10:40:54.410Z,7.20
2023-05-06T10:41:54.382Z,6.80
2023-05-06T10:42:54.434Z,7.80
2023-05-06T10:43:54.364Z,6.50
2023-05-06T10:44:54.441Z,6.60
2023-05-06T10:45:54.366Z,6.20
2023-05-06T10:46:54.336Z,6.20
2023-05-06T10:47:54.396Z,7.50
2023-05-06T10:48:54.304Z,7.90
2023-05-06T10:49:54.319Z,7.90
2023-05-06T10:50:54.300Z,7.90
2023-05-06T10:51:54.272Z,6.60
2023-05-06T10:52:54.267Z,7.20
2023-05-06T10:53:54.263Z,7.10
2023-05-06T10:54:54.263Z,7.40
2023-05-06T10:55:54.252Z,7.30
2023-05-06T10:56:54.227Z,6.50
2023-05-06T10:57:54.228Z,5.90
2023-05-06T10:58:54.347Z,6.60
2023-05-06T10:59:54.213Z,6.40
2023-05-06T11:00:54.216Z,6.60
2023-05-06T11:01:54.179Z,6.40
2023-05-06T11:02:54.241Z,6.50
2023-05-06T11:03:54.184Z,7.00
2023-05-06T11:04:54.163Z,6.50
2023-05-06T11:05:54.141Z,6.80
2023-05-06T11:06:54.140Z,6.50
2023-05-06T11:07:54.121Z,6.50
2023-05-06T11:08:54.129Z,6.40
2023-05-06T11:09:54.107Z,6.40
2023-05-06T11:10:54.095Z,6.90
2023-05-06T11:11:54.083Z,6.30
2023-05-06T11:12:54.092Z,7.10
2023-05-06T11:13:54.075Z,6.20
2023-05-06T11:14:54.315Z,6.60
2023-05-06T11:15:54.068Z,6.20
2023-05-06T11:16:54.043Z,6.20
2023-05-06T11:17:54.056Z,6.00
2023-05-06T11:18:54.014Z,6.20
2023-05-06T11:19:54.002Z,5.70
2023-05-06T11:20:53.996Z,5.70
2023-05-06T11:21:53.996Z,5.70
2023-05-06T11:22:53.990Z,5.20
2023-05-06T11:23:53.973Z,4.70
2023-05-06T11:24:53.951Z,5.50
2023-05-06T11:25:53.962Z,5.40
2023-05-06T11:26:53.954Z,5.00
2023-05-06T11:27:53.941Z,5.20
2023-05-06T11:28:53.919Z,5.20
2023-05-06T11:29:53.915Z,4.90
2023-05-06T11:30:54.011Z,4.90
2023-05-06T11:31:53.905Z,4.80
2023-05-06T11:32:53.921Z,5.10
2023-05-06T11:33:53.874Z,4.80
2023-05-06T11:34:53.862Z,5.10
2023-05-06T11:35:53.882Z,5.10
2023-05-06T11:36:53.876Z,5.20
2023-05-06T11:37:53.871Z,4.70
2023-05-06T11:38:53.826Z,4.90
2023-05-06T11:39:53.820Z,4.60
2023-05-06T11:40:53.820Z,4.80
2023-05-06T11:41:53.813Z,4.30
2023-05-06T11:42:53.789Z,4.20
2023-05-06T11:43:53.832Z,4.40
2023-05-06T11:44:53.778Z,4.10
2023-05-06T11:45:53.808Z,4.30
2023-05-06T11:46:53.827Z,4.60
2023-05-06T11:47:53.752Z,3.90
2023-05-06T11:48:53.731Z,3.80
2023-05-06T11:49:53.744Z,3.60
2023-05-06T11:50:53.722Z,4.70
2023-05-06T11:51:53.705Z,3.90
2023-05-06T11:52:53.704Z,4.40
2023-05-06T11:53:53.684Z,4.50
2023-05-06T11:54:53.690Z,4.40
2023-05-06T11:55:53.686Z,4.40
2023-05-06T11:56:53.674Z,4.80
2023-05-06T11:57:53.643Z,4.20
2023-05-06T11:58:53.652Z,4.80
2023-05-06T11:59:53.643Z,4.30
2023-05-06T12:00:53.615Z,4.20
2023-05-06T12:01:53.614Z,4.00
2023-05-06T12:02:53.727Z,4.10
2023-05-06T12:03:53.769Z,4.20
2023-05-06T12:04:53.689Z,4.00
2023-05-06T12:05:53.580Z,3.80
2023-05-06T12:06:53.562Z,3.60
2023-05-06T12:07:53.553Z,3.90
2023-05-06T12:08:53.558Z,4.10
2023-05-06T12:09:53.541Z,4.70
2023-05-06T12:10:53.540Z,4.10
2023-05-06T12:11:53.513Z,4.50
2023-05-06T12:12:53.534Z,3.90
2023-05-06T12:13:53.507Z,3.80
2023-05-06T12:14:53.519Z,3.70
2023-05-06T12:15:53.501Z,3.60
2023-05-06T12:16:55.975Z,3.80
2023-05-06T12:17:53.469Z,3.60
2023-05-06T12:18:53.529Z,3.60
2023-05-06T12:19:53.438Z,3.30
2023-05-06T12:20:53.435Z,3.70
2023-05-06T12:21:53.418Z,3.70
2023-05-06T12:22:55.417Z,3.20
2023-05-06T12:23:53.463Z,3.10
2023-05-06T12:24:53.405Z,3.40
2023-05-06T12:25:53.387Z,3.60
2023-05-06T12:26:53.375Z,3.10
2023-05-06T12:27:53.378Z,3.20
2023-05-06T12:28:53.357Z,3.30
2023-05-06T12:29:53.347Z,3.30
2023-05-06T12:30:53.339Z,3.20
2023-05-06T12:31:53.347Z,3.70
2023-05-06T12:32:53.376Z,3.30
2023-05-06T12:33:54.674Z,3.10
2023-05-06T12:34:53.372Z,3.10
2023-05-06T12:35:53.291Z,3.20
2023-05-06T12:36:53.457Z,3.20
2023-05-06T12:37:53.287Z,3.50
2023-05-06T12:38:53.256Z,3.50
2023-05-06T12:39:53.258Z,3.40
2023-05-06T12:40:53.242Z,3.50
2023-05-06T12:41:53.245Z,3.30
2023-05-06T12:42:53.220Z,3.20
2023-05-06T12:43:53.205Z,3.40
2023-05-06T12:44:53.213Z,3.10
2023-05-06T12:45:53.216Z,3.60
2023-05-06T12:46:53.195Z,2.60
2023-05-06T12:47:53.234Z,3.00
2023-05-06T12:48:53.165Z,3.20
2023-05-06T12:49:53.163Z,2.90
2023-05-06T12:50:53.218Z,3.20
2023-05-06T12:51:53.151Z,3.20
2023-05-06T12:52:53.126Z,3.50
2023-05-06T12:53:53.119Z,3.00
2023-05-06T12:54:53.208Z,3.20
2023-05-06T12:55:53.111Z,2.80
2023-05-06T12:56:53.091Z,3.20
2023-05-06T12:57:53.088Z,3.10
2023-05-06T12:58:53.082Z,2.80
2023-05-06T12:59:53.057Z,3.00
2023-05-06T13:00:53.097Z,2.70
2023-05-06T13:01:53.040Z,2.90
2023-05-06T13:02:53.123Z,2.60